Terminal Aerodrome Forecast
Issued by NWS

Home | Current Version | Previous Version | Text Only | Print | Product List | Glossary Off
Versions: 1 2 3 4 5 6 7 8 9 10 11 12 13 14 15 16 17 18 19

002
FTUS43 KMPX 240520
TAFRWF
TAF
KRWF 240520Z 2406/2506 29003KT P6SM OVC012
     FM240900 VRB02KT 6SM BR OVC008
     FM241600 10006KT P6SM OVC012
     FM242200 08009KT 2SM -SN OVC010
     FM250200 06010KT 3/4SM -SN VV006=

USA.gov is the U.S. government's official web portal to all federal, state and local government web resources and services.